Time;durP1;ratioP1;P1;durP2;ratioP2;P2;SDS_P1;SDS_P2;PMS_P1;PMS_P2;Temp;Humidity;BMP_temperature;BMP_pressure;BME280_temperature;BME280_humidity;BME280_pressure;Samples;Min_cycle;Max_cycle;Signal;HPM_P1;HPM_P2
2022/10/31 00:02:08;;;;;;;8.88;4.57;;;15.50;92.20;;;;;;4973835;28;20035;-65
2022/10/31 00:04:33;;;;;;;8.70;4.72;;;15.50;92.10;;;;;;4973782;28;20035;-64
2022/10/31 00:06:59;;;;;;;14.18;5.07;;;15.40;92.10;;;;;;4975350;28;20031;-70
2022/10/31 00:09:25;;;;;;;15.48;5.85;;;15.40;92.00;;;;;;4977333;28;20046;-64
2022/10/31 00:11:50;;;;;;;14.50;4.78;;;15.30;91.90;;;;;;4977626;28;20035;-67
2022/10/31 00:14:16;;;;;;;10.48;5.05;;;15.30;91.90;;;;;;4977272;28;20051;-64
2022/10/31 00:16:42;;;;;;;15.25;5.20;;;15.30;91.80;;;;;;4977375;28;20503;-64
2022/10/31 00:19:08;;;;;;;11.25;5.13;;;15.30;91.70;;;;;;4977411;28;20109;-65
2022/10/31 00:21:35;;;;;;;11.02;5.70;;;15.30;91.70;;;;;;4977391;28;20111;-65
2022/10/31 00:24:01;;;;;;;10.38;5.53;;;15.30;91.70;;;;;;4977260;28;20038;-64
2022/10/31 00:26:28;;;;;;;13.30;5.68;;;15.30;91.90;;;;;;4977331;28;20039;-64
2022/10/31 00:28:54;;;;;;;11.70;5.47;;;15.20;91.90;;;;;;4977420;28;20035;-67
2022/10/31 00:31:19;;;;;;;15.57;6.10;;;15.20;92.00;;;;;;4977234;28;20035;-64
2022/10/31 00:33:45;;;;;;;12.63;6.40;;;15.20;92.10;;;;;;4977272;28;20089;-69
2022/10/31 00:36:17;;;;;;;15.57;6.03;;;15.20;92.10;;;;;;4977249;28;20396;-66
2022/10/31 00:38:43;;;;;;;;;;;15.20;92.10;;;;;;4977671;28;20026;-65
2022/10/31 00:41:11;;;;;;;18.48;6.57;;;15.20;92.10;;;;;;4976916;28;19929;-64
2022/10/31 00:43:36;;;;;;;13.77;5.95;;;15.10;92.00;;;;;;4976900;28;20031;-68
2022/10/31 00:46:02;;;;;;;14.38;5.93;;;15.10;92.00;;;;;;4976820;28;20042;-67
2022/10/31 00:48:28;;;;;;;10.10;5.35;;;15.10;92.10;;;;;;4976699;28;20042;-70
2022/10/31 00:50:54;;;;;;;13.48;5.90;;;15.10;92.10;;;;;;4976685;28;20039;-66
2022/10/31 00:53:20;;;;;;;18.20;6.10;;;15.00;92.20;;;;;;4976722;28;20026;-64
2022/10/31 00:55:45;;;;;;;9.07;5.25;;;15.00;92.30;;;;;;4976769;28;20508;-70
2022/10/31 00:58:11;;;;;;;14.95;5.40;;;15.00;92.30;;;;;;4976577;28;20101;-65
2022/10/31 01:00:37;;;;;;;16.33;5.57;;;15.00;92.40;;;;;;4976297;28;20039;-65
2022/10/31 01:03:02;;;;;;;17.58;5.22;;;14.90;92.50;;;;;;4976646;28;20137;-70
2022/10/31 01:05:28;;;;;;;13.63;4.90;;;14.90;92.60;;;;;;4976509;28;20039;-69
2022/10/31 01:07:54;;;;;;;12.55;5.60;;;14.90;92.70;;;;;;4976428;28;20066;-65
2022/10/31 01:10:19;;;;;;;10.82;4.53;;;14.90;92.60;;;;;;4976316;28;20043;-65
2022/10/31 01:12:48;;;;;;;16.80;5.63;;;14.90;92.60;;;;;;4976353;28;20043;-64
2022/10/31 01:15:19;;;;;;;14.13;5.38;;;14.90;92.60;;;;;;4976114;28;20505;-69
2022/10/31 01:17:44;;;;;;;10.15;4.75;;;14.90;92.50;;;;;;4976536;28;20429;-64
2022/10/31 01:20:12;;;;;;;15.23;5.28;;;14.80;92.40;;;;;;4976301;28;20066;-64
2022/10/31 01:22:38;;;;;;;17.40;5.00;;;14.90;92.40;;;;;;4976023;28;20034;-64
2022/10/31 01:25:04;;;;;;;12.15;5.30;;;14.90;92.30;;;;;;4976178;28;20102;-65
2022/10/31 01:27:31;;;;;;;15.50;5.22;;;14.80;92.30;;;;;;4976213;28;20031;-65
2022/10/31 01:29:56;;;;;;;12.88;4.85;;;14.80;92.30;;;;;;4976383;28;20078;-65
2022/10/31 01:32:22;;;;;;;14.57;5.07;;;14.80;92.10;;;;;;4976273;28;20031;-64
2022/10/31 01:34:48;;;;;;;13.75;4.95;;;14.80;92.10;;;;;;4975893;28;20078;-64
2022/10/31 01:37:13;;;;;;;10.02;4.75;;;14.70;92.10;;;;;;4975964;28;20106;-64
2022/10/31 01:39:39;;;;;;;8.60;4.35;;;14.70;92.10;;;;;;4976111;28;20062;-68
2022/10/31 01:42:05;;;;;;;12.15;4.18;;;14.70;92.20;;;;;;4975903;28;20034;-64
2022/10/31 01:44:30;;;;;;;12.70;3.85;;;14.70;92.20;;;;;;4975658;28;20042;-69
2022/10/31 01:46:59;;;;;;;21.65;4.22;;;14.70;92.20;;;;;;4976011;28;20473;-69
2022/10/31 01:49:30;;;;;;;10.43;4.20;;;14.70;92.20;;;;;;4975772;28;20132;-67
2022/10/31 01:52:07;;;;;;;11.32;4.32;;;14.60;92.20;;;;;;4975570;28;20054;-66
2022/10/31 01:54:39;;;;;;;12.52;4.07;;;14.60;92.20;;;;;;4975327;28;20039;-70
2022/10/31 01:57:08;;;;;;;11.00;4.35;;;14.60;92.10;;;;;;4975334;28;20039;-66
2022/10/31 01:59:39;;;;;;;14.25;4.68;;;14.60;92.00;;;;;;4972573;28;20039;-70
2022/10/31 02:02:06;;;;;;;10.45;4.05;;;14.60;92.00;;;;;;4972831;28;20039;-64
2022/10/31 02:04:32;;;;;;;8.98;4.00;;;14.50;92.10;;;;;;4973509;28;20046;-69
2022/10/31 02:07:14;;;;;;;9.35;4.25;;;14.50;92.10;;;;;;4974777;28;20031;-65
2022/10/31 02:09:42;;;;;;;11.77;4.78;;;14.50;92.10;;;;;;4975597;28;20035;-64
2022/10/31 02:12:10;;;;;;;12.90;4.40;;;14.50;92.10;;;;;;4975423;28;20149;-69
2022/10/31 02:14:37;;;;;;;15.18;4.35;;;14.50;92.00;;;;;;4974957;28;20105;-65
2022/10/31 02:17:03;;;;;;;12.32;4.00;;;14.50;92.00;;;;;;4975080;28;20039;-65
2022/10/31 02:19:58;;;;;;;8.85;4.10;;;14.50;92.10;;;;;;4975088;28;20035;-69
2022/10/31 02:22:23;;;;;;;11.05;4.30;;;14.50;92.00;;;;;;4965319;28;20041;-64
2022/10/31 02:25:18;;;;;;;14.07;4.03;;;14.40;92.00;;;;;;4975212;28;20039;-65
2022/10/31 02:27:49;;;;;;;12.82;4.22;;;14.40;92.00;;;;;;4974459;28;20039;-70
2022/10/31 02:30:16;;;;;;;14.27;4.75;;;14.40;92.00;;;;;;4974437;28;20035;-70
2022/10/31 02:33:13;;;;;;;11.95;4.25;;;14.40;92.00;;;;;;4975179;28;20043;-66
2022/10/31 02:35:48;;;;;;;14.65;5.53;;;14.30;91.90;;;;;;4973424;28;20062;-67
2022/10/31 02:38:44;;;;;;;12.45;4.38;;;14.30;92.10;;;;;;4974764;28;20031;-69
2022/10/31 02:41:23;;;;;;;17.08;4.40;;;14.30;92.00;;;;;;4974833;28;20515;-69
2022/10/31 02:43:52;;;;;;;13.82;4.65;;;14.30;91.90;;;;;;4973551;28;20552;-69
2022/10/31 02:46:47;;;;;;;8.68;4.25;;;14.30;91.90;;;;;;4975153;28;20030;-66
2022/10/31 02:49:28;;;;;;;12.50;4.38;;;14.30;92.00;;;;;;4974762;28;20060;-67
2022/10/31 02:51:54;;;;;;;14.77;4.28;;;14.20;92.00;;;;;;4974760;28;20031;-65
2022/10/31 02:54:23;;;;;;;14.10;4.55;;;14.20;92.00;;;;;;4974739;28;20101;-67
2022/10/31 02:56:50;;;;;;;12.70;4.07;;;14.20;92.10;;;;;;4974510;28;20037;-64
2022/10/31 02:59:16;;;;;;;15.63;4.53;;;14.20;92.20;;;;;;4974477;28;20089;-69
2022/10/31 03:02:00;;;;;;;15.18;4.68;;;14.10;92.20;;;;;;4974701;28;20043;-70
2022/10/31 03:04:40;;;;;;;12.25;5.07;;;14.10;92.20;;;;;;4974537;28;20047;-68
2022/10/31 03:07:14;;;;;;;10.60;4.25;;;14.10;92.20;;;;;;4974446;28;20069;-68
2022/10/31 03:10:03;;;;;;;14.82;4.47;;;14.10;92.20;;;;;;4974776;28;20041;-67
2022/10/31 03:12:39;;;;;;;15.20;4.60;;;14.10;92.30;;;;;;4974696;28;20049;-66
2022/10/31 03:15:25;;;;;;;14.27;4.57;;;14.10;92.30;;;;;;4974127;28;20067;-65
2022/10/31 03:18:00;;;;;;;14.23;4.32;;;14.10;92.30;;;;;;4974434;28;20114;-70
2022/10/31 03:20:43;;;;;;;12.30;4.43;;;14.00;92.20;;;;;;4974081;28;20039;-70
2022/10/31 03:23:14;;;;;;;9.75;4.07;;;14.00;92.20;;;;;;4974098;28;20046;-71
2022/10/31 03:25:41;;;;;;;9.15;4.50;;;14.00;92.30;;;;;;4974612;28;20027;-69
2022/10/31 03:28:09;;;;;;;18.42;5.45;;;14.00;92.20;;;;;;4974257;28;20461;-64
2022/10/31 03:30:38;;;;;;;7.85;3.88;;;14.00;92.30;;;;;;4974171;28;20045;-71
2022/10/31 03:33:09;;;;;;;9.25;4.28;;;14.00;92.20;;;;;;4972956;28;20074;-66
2022/10/31 03:35:38;;;;;;;10.77;4.18;;;14.00;92.20;;;;;;4974080;28;20527;-71
2022/10/31 03:38:04;;;;;;;9.65;3.70;;;14.00;92.10;;;;;;4974225;28;20453;-71
2022/10/31 03:40:32;;;;;;;11.05;3.80;;;14.00;92.10;;;;;;4974032;28;20035;-64
2022/10/31 03:43:04;;;;;;;15.40;4.22;;;14.00;92.10;;;;;;4977326;28;20039;-65
2022/10/31 03:45:32;;;;;;;12.63;3.60;;;14.00;92.10;;;;;;4978250;28;20378;-69
2022/10/31 03:47:59;;;;;;;9.65;3.70;;;14.00;92.10;;;;;;4978012;28;20035;-65
2022/10/31 03:50:57;;;;;;;18.30;4.70;;;14.00;92.20;;;;;;4977703;28;20047;-69
2022/10/31 03:53:46;;;;;;;10.18;3.58;;;13.90;92.10;;;;;;4973360;28;20043;-66
2022/10/31 03:56:29;;;;;;;14.35;3.38;;;13.90;92.20;;;;;;4978177;28;20055;-68
2022/10/31 03:59:10;;;;;;;9.35;3.20;;;13.80;92.20;;;;;;4978012;28;20473;-66
2022/10/31 04:01:42;;;;;;;12.00;3.50;;;13.80;92.30;;;;;;4977748;28;20073;-68
2022/10/31 04:04:09;;;;;;;6.25;3.15;;;13.80;92.30;;;;;;4977748;28;20034;-70
2022/10/31 04:06:37;;;;;;;12.32;3.83;;;13.90;92.30;;;;;;4977371;28;20335;-64
2022/10/31 04:09:06;;;;;;;9.00;3.45;;;13.80;92.20;;;;;;4977772;28;20512;-65
2022/10/31 04:11:36;;;;;;;11.80;4.00;;;13.80;92.20;;;;;;4977298;28;20088;-66
2022/10/31 04:14:04;;;;;;;13.05;3.30;;;13.80;92.10;;;;;;4977286;28;20031;-67
2022/10/31 04:16:30;;;;;;;17.55;4.00;;;13.80;92.10;;;;;;4976143;28;20061;-69
2022/10/31 04:18:56;;;;;;;9.05;3.13;;;13.80;92.10;;;;;;4977417;28;20062;-69
2022/10/31 04:21:30;;;;;;;14.77;3.97;;;13.70;92.10;;;;;;4977245;28;20046;-70
2022/10/31 04:23:56;;;;;;;16.20;3.72;;;13.70;92.20;;;;;;4977369;28;20039;-70
2022/10/31 04:26:22;;;;;;;19.83;3.70;;;13.70;92.10;;;;;;4977188;28;20034;-69
2022/10/31 04:28:48;;;;;;;11.55;3.55;;;13.70;92.10;;;;;;4977275;28;20049;-65
2022/10/31 04:31:14;;;;;;;14.82;3.47;;;13.70;92.00;;;;;;4977166;28;20035;-69
2022/10/31 04:33:40;;;;;;;10.38;3.40;;;13.80;92.10;;;;;;4976949;28;20118;-70
2022/10/31 04:36:06;;;;;;;11.05;3.53;;;13.70;92.10;;;;;;4977054;28;20109;-65
2022/10/31 04:38:31;;;;;;;8.07;3.35;;;13.70;92.00;;;;;;4977126;28;20035;-71
2022/10/31 04:40:57;;;;;;;14.10;3.50;;;13.70;91.90;;;;;;4977111;28;20051;-66
2022/10/31 04:43:23;;;;;;;10.57;3.65;;;13.70;91.90;;;;;;4977109;28;20045;-70
2022/10/31 04:45:48;;;;;;;6.47;2.95;;;13.60;92.10;;;;;;4976949;28;20034;-67
2022/10/31 04:48:14;;;;;;;9.57;3.10;;;13.60;92.10;;;;;;4976891;28;20114;-65
2022/10/31 04:50:40;;;;;;;12.15;3.70;;;13.60;92.10;;;;;;4976824;28;20539;-65
2022/10/31 04:53:05;;;;;;;8.30;3.33;;;13.60;92.00;;;;;;4976239;28;20081;-66
2022/10/31 04:55:31;;;;;;;13.63;2.85;;;13.60;92.00;;;;;;4976666;28;20504;-64
2022/10/31 04:57:57;;;;;;;15.50;3.67;;;13.60;92.00;;;;;;4976909;28;20130;-70
2022/10/31 05:00:24;;;;;;;12.48;3.25;;;13.60;91.90;;;;;;4976821;28;20066;-71
2022/10/31 05:02:52;;;;;;;10.30;3.50;;;13.60;91.90;;;;;;4976770;28;20049;-68
2022/10/31 05:05:20;;;;;;;7.82;2.80;;;13.50;92.00;;;;;;4976565;28;20456;-65
2022/10/31 05:07:47;;;;;;;10.90;3.92;;;13.50;92.10;;;;;;4976471;28;20034;-64
2022/10/31 05:10:16;;;;;;;17.73;4.10;;;13.50;92.10;;;;;;4961631;28;20039;-65
2022/10/31 05:12:52;;;;;;;7.32;3.38;;;13.50;92.10;;;;;;4956564;29;20035;-68
2022/10/31 05:15:19;;;;;;;12.00;3.30;;;13.50;92.10;;;;;;4956538;29;20046;-64
2022/10/31 05:17:45;;;;;;;13.98;3.45;;;13.50;92.10;;;;;;4956652;29;20137;-68
2022/10/31 05:20:12;;;;;;;9.90;3.30;;;13.50;92.00;;;;;;4956769;29;20067;-68
2022/10/31 05:22:43;;;;;;;13.98;3.63;;;13.50;92.10;;;;;;4958075;29;20086;-67
2022/10/31 05:25:09;;;;;;;8.85;3.88;;;13.50;92.10;;;;;;4957911;29;20042;-65
2022/10/31 05:27:34;;;;;;;17.20;3.42;;;13.40;92.10;;;;;;4956578;28;20050;-68
2022/10/31 05:30:00;;;;;;;13.57;3.45;;;13.40;92.10;;;;;;4956168;29;20142;-64
2022/10/31 05:32:26;;;;;;;15.75;3.40;;;13.40;92.40;;;;;;4955383;29;20037;-65
2022/10/31 05:34:51;;;;;;;13.38;3.65;;;13.40;92.20;;;;;;4956075;29;20087;-68
2022/10/31 05:37:17;;;;;;;14.38;3.45;;;13.40;92.40;;;;;;4956213;29;20039;-67
2022/10/31 05:39:43;;;;;;;18.80;4.47;;;13.40;92.30;;;;;;4956356;29;20046;-68
2022/10/31 05:42:08;;;;;;;10.38;4.10;;;13.40;92.40;;;;;;4956184;29;20027;-65
2022/10/31 05:44:34;;;;;;;17.52;3.55;;;13.40;92.30;;;;;;4955003;29;20082;-66
2022/10/31 05:46:59;;;;;;;10.93;4.03;;;13.40;92.20;;;;;;4956095;29;20501;-64
2022/10/31 05:49:25;;;;;;;15.50;3.75;;;13.40;92.20;;;;;;4955652;29;20058;-70
2022/10/31 05:51:51;;;;;;;13.90;3.15;;;13.40;92.20;;;;;;4955692;29;20090;-65
2022/10/31 05:54:17;;;;;;;16.75;3.60;;;13.40;92.30;;;;;;4956096;29;20113;-68
2022/10/31 05:56:42;;;;;;;14.57;3.22;;;13.40;92.40;;;;;;4954621;29;20478;-68
2022/10/31 05:59:08;;;;;;;16.52;4.30;;;13.40;92.60;;;;;;4955786;29;20408;-68
2022/10/31 06:01:34;;;;;;;10.30;3.58;;;13.40;92.30;;;;;;4955850;29;20042;-64
2022/10/31 06:03:59;;;;;;;14.80;3.67;;;13.40;92.40;;;;;;4954634;28;20038;-69
2022/10/31 06:06:25;;;;;;;14.60;3.35;;;13.30;92.40;;;;;;4956280;29;20119;-64
2022/10/31 06:08:51;;;;;;;14.00;3.63;;;13.30;92.50;;;;;;4955661;29;20039;-65
2022/10/31 06:11:16;;;;;;;11.15;3.38;;;13.30;92.50;;;;;;4961292;28;20513;-64
2022/10/31 06:13:42;;;;;;;11.60;3.47;;;13.40;92.60;;;;;;4974767;28;20035;-66
2022/10/31 06:16:08;;;;;;;19.35;4.45;;;13.40;92.60;;;;;;4974999;28;20085;-65
2022/10/31 06:18:33;;;;;;;12.32;3.78;;;13.30;92.70;;;;;;4974673;28;20023;-68
2022/10/31 06:20:59;;;;;;;11.30;2.80;;;13.30;92.70;;;;;;4974699;28;20153;-64
2022/10/31 06:23:24;;;;;;;14.00;2.90;;;13.30;92.70;;;;;;4974455;28;20030;-65
2022/10/31 06:25:51;;;;;;;10.50;3.60;;;13.40;92.80;;;;;;4974526;28;20114;-66
2022/10/31 06:28:16;;;;;;;13.43;3.25;;;13.40;92.70;;;;;;4974872;28;20046;-69
2022/10/31 06:30:42;;;;;;;13.20;3.13;;;13.40;92.60;;;;;;4974981;28;20393;-64
2022/10/31 06:33:08;;;;;;;12.73;3.10;;;13.50;92.50;;;;;;4974280;28;20454;-64
2022/10/31 06:35:34;;;;;;;15.45;3.40;;;13.50;92.40;;;;;;4974292;28;20070;-67
2022/10/31 06:37:59;;;;;;;8.57;3.45;;;13.40;92.40;;;;;;4974540;28;20038;-66
2022/10/31 06:40:25;;;;;;;17.77;3.40;;;13.40;92.30;;;;;;4974501;28;20388;-65
2022/10/31 06:43:00;;;;;;;17.88;3.42;;;13.50;92.60;;;;;;4974315;28;20035;-67
2022/10/31 06:45:27;;;;;;;15.63;3.45;;;13.50;92.50;;;;;;4974243;28;20038;-64
2022/10/31 06:47:54;;;;;;;17.38;3.13;;;13.50;92.60;;;;;;4973880;28;20035;-65
2022/10/31 06:50:21;;;;;;;11.25;4.03;;;13.50;92.70;;;;;;4973746;28;20050;-64
2022/10/31 06:52:54;;;;;;;14.20;3.55;;;13.60;92.70;;;;;;4974147;28;20088;-68
2022/10/31 06:55:22;;;;;;;18.40;4.40;;;13.70;92.60;;;;;;4974270;28;20043;-69
2022/10/31 06:58:09;;;;;;;16.42;4.05;;;13.70;92.60;;;;;;4973757;28;20377;-64
2022/10/31 07:00:35;;;;;;;13.38;3.88;;;13.80;92.50;;;;;;4973002;28;20037;-64
2022/10/31 07:03:03;;;;;;;12.55;3.97;;;13.90;92.80;;;;;;4973632;28;20035;-65
2022/10/31 07:05:30;;;;;;;20.50;5.50;;;13.90;93.00;;;;;;4973908;28;20086;-67
2022/10/31 07:08:00;;;;;;;14.30;4.70;;;13.90;93.40;;;;;;4973327;28;20041;-64
2022/10/31 07:10:28;;;;;;;20.92;4.57;;;14.00;93.20;;;;;;4973277;28;20362;-65
2022/10/31 07:12:59;;;;;;;11.70;4.78;;;14.10;93.20;;;;;;4972908;28;20031;-69
2022/10/31 07:15:26;;;;;;;15.90;5.18;;;14.20;93.50;;;;;;4972628;28;20039;-67
2022/10/31 07:17:52;;;;;;;10.95;4.55;;;14.20;93.30;;;;;;4973658;28;20492;-65
2022/10/31 07:20:18;;;;;;;20.83;5.63;;;14.30;93.30;;;;;;4973914;28;20027;-67
2022/10/31 07:22:44;;;;;;;16.60;5.05;;;14.40;93.30;;;;;;4974116;28;20062;-64
2022/10/31 07:25:10;;;;;;;9.52;4.25;;;14.40;93.20;;;;;;4973719;28;20126;-65
2022/10/31 07:27:42;;;;;;;16.55;4.15;;;14.50;93.10;;;;;;4973804;28;20448;-65
2022/10/31 07:30:09;;;;;;;;;;;14.50;93.10;;;;;;4974289;28;20045;-68
2022/10/31 07:32:55;;;;;;;19.27;4.40;;;14.60;93.30;;;;;;4973878;28;19906;-68
2022/10/31 07:35:28;;;;;;;17.40;3.42;;;14.60;93.20;;;;;;4973382;28;20047;-64
2022/10/31 07:37:54;;;;;;;17.33;3.50;;;14.70;93.30;;;;;;4974185;28;20034;-65
2022/10/31 07:40:22;;;;;;;14.95;4.10;;;14.70;93.30;;;;;;4973916;28;20034;-69
2022/10/31 07:42:49;;;;;;;11.18;3.53;;;14.80;93.30;;;;;;4974131;28;20027;-67
2022/10/31 07:45:18;;;;;;;14.25;2.95;;;14.80;93.20;;;;;;4973933;28;20038;-67
2022/10/31 07:47:46;;;;;;;13.02;2.88;;;14.90;93.10;;;;;;4973561;28;20473;-68
2022/10/31 07:50:14;;;;;;;15.82;3.40;;;14.90;93.00;;;;;;4973615;28;20496;-65
2022/10/31 07:52:40;;;;;;;13.20;3.15;;;15.00;92.80;;;;;;4973469;28;20035;-66
2022/10/31 07:55:07;;;;;;;13.23;3.75;;;15.10;92.60;;;;;;4973905;28;20057;-69
2022/10/31 07:57:33;;;;;;;16.02;4.05;;;;;;;;;;4973966;28;20111;-68
2022/10/31 07:59:59;;;;;;;10.70;2.97;;;15.40;93.00;;;;;;4973718;28;20145;-67
2022/10/31 08:02:25;;;;;;;10.05;3.33;;;15.30;92.30;;;;;;4972954;28;20485;-66
2022/10/31 08:04:51;;;;;;;16.10;3.70;;;15.40;99.90;;;;;;4956626;28;20039;-65
2022/10/31 08:07:17;;;;;;;16.98;4.00;;;15.50;97.10;;;;;;4954308;29;20512;-68
2022/10/31 08:09:43;;;;;;;11.93;3.45;;;15.50;91.90;;;;;;4954627;28;20503;-66
2022/10/31 08:12:08;;;;;;;14.60;3.63;;;15.50;91.80;;;;;;4954386;29;20122;-65
2022/10/31 08:14:34;;;;;;;10.68;3.35;;;15.70;92.20;;;;;;4954498;29;20043;-65
2022/10/31 08:17:00;;;;;;;11.68;3.72;;;15.60;91.90;;;;;;4953242;29;20042;-66
2022/10/31 08:19:25;;;;;;;13.15;3.10;;;15.70;91.80;;;;;;4954759;29;20103;-68
2022/10/31 08:21:52;;;;;;;17.48;3.05;;;15.70;91.60;;;;;;4952862;29;20039;-68
2022/10/31 08:24:18;;;;;;;13.88;3.40;;;15.80;91.70;;;;;;4954656;28;20038;-65
2022/10/31 08:26:44;;;;;;;10.98;3.28;;;15.80;91.40;;;;;;4954373;28;20122;-65
2022/10/31 08:29:09;;;;;;;10.23;3.22;;;15.90;91.50;;;;;;4957231;29;20082;-69
2022/10/31 08:31:35;;;;;;;13.10;3.00;;;16.00;91.40;;;;;;4957187;29;20043;-68
2022/10/31 08:34:01;;;;;;;12.88;2.92;;;16.00;91.60;;;;;;4957916;28;20040;-68
2022/10/31 08:36:27;;;;;;;16.02;3.60;;;16.10;91.60;;;;;;4957881;28;20500;-66
2022/10/31 08:38:53;;;;;;;16.98;3.20;;;16.20;91.60;;;;;;4957869;28;20031;-65
2022/10/31 08:41:19;;;;;;;18.83;3.10;;;16.30;91.50;;;;;;4957649;28;20036;-68
2022/10/31 08:43:45;;;;;;;16.83;4.07;;;16.30;91.50;;;;;;4957761;29;20038;-65
2022/10/31 08:46:10;;;;;;;14.48;3.05;;;16.40;91.50;;;;;;4957720;29;20505;-67
2022/10/31 08:48:37;;;;;;;12.07;2.80;;;16.40;91.40;;;;;;4957774;29;20525;-66
2022/10/31 08:51:02;;;;;;;17.48;4.05;;;16.50;91.10;;;;;;4957616;28;20063;-65
2022/10/31 08:53:28;;;;;;;14.93;3.35;;;16.60;91.30;;;;;;4957516;28;20074;-65
2022/10/31 08:55:55;;;;;;;17.08;3.45;;;16.60;91.20;;;;;;4957268;28;20054;-69
2022/10/31 08:58:21;;;;;;;16.08;3.60;;;16.70;91.00;;;;;;4957259;28;20140;-69
2022/10/31 09:00:50;;;;;;;15.93;3.53;;;16.80;91.00;;;;;;4957509;28;20098;-70
2022/10/31 09:03:18;;;;;;;14.38;3.50;;;16.90;90.90;;;;;;4957329;28;20043;-69
2022/10/31 09:05:45;;;;;;;15.07;2.88;;;16.90;90.70;;;;;;4957019;28;20121;-68
2022/10/31 09:08:12;;;;;;;15.55;2.88;;;17.00;90.40;;;;;;4956877;28;20038;-70
2022/10/31 09:10:38;;;;;;;15.13;3.03;;;17.10;90.60;;;;;;4957032;28;20516;-69
2022/10/31 09:13:14;;;;;;;15.48;2.80;;;17.20;90.70;;;;;;4957122;28;20035;-69
2022/10/31 09:15:43;;;;;;;16.02;3.47;;;17.20;90.40;;;;;;4957035;28;20044;-69
2022/10/31 09:18:10;;;;;;;17.60;3.05;;;17.30;90.30;;;;;;4957007;28;20070;-70
2022/10/31 09:20:37;;;;;;;23.20;3.55;;;17.40;90.20;;;;;;4956600;28;20035;-69
2022/10/31 09:23:06;;;;;;;15.05;3.22;;;17.40;90.10;;;;;;4956540;28;20506;-68
2022/10/31 09:25:33;;;;;;;19.63;3.25;;;17.50;90.00;;;;;;4956175;28;20532;-69
2022/10/31 09:28:01;;;;;;;17.45;3.90;;;17.60;89.90;;;;;;4956453;28;20508;-68
2022/10/31 09:30:29;;;;;;;21.13;3.90;;;17.60;89.50;;;;;;4956704;28;20449;-70
2022/10/31 09:32:59;;;;;;;22.00;4.30;;;17.60;88.90;;;;;;4956336;28;20511;-68
2022/10/31 09:35:25;;;;;;;16.35;3.60;;;17.70;88.70;;;;;;4956480;28;20391;-68
2022/10/31 09:38:02;;;;;;;18.15;4.22;;;17.80;89.20;;;;;;4956565;28;20500;-68
2022/10/31 09:40:37;;;;;;;13.38;3.00;;;17.90;88.50;;;;;;4956247;28;20047;-65
2022/10/31 09:43:23;;;;;;;9.85;2.60;;;17.90;87.90;;;;;;4956715;28;20063;-69
2022/10/31 09:45:52;;;;;;;13.00;3.20;;;18.00;87.50;;;;;;4956480;29;20038;-70
2022/10/31 09:48:31;;;;;;;17.00;2.85;;;18.10;87.40;;;;;;4956321;29;20036;-69
2022/10/31 09:51:08;;;;;;;12.43;2.97;;;18.20;87.20;;;;;;4956391;28;20126;-68
2022/10/31 09:53:42;;;;;;;22.42;3.00;;;18.20;86.90;;;;;;4955587;28;20035;-69
2022/10/31 09:56:13;;;;;;;11.40;2.60;;;18.30;86.30;;;;;;4955870;28;20417;-67
2022/10/31 09:58:46;;;;;;;12.02;3.17;;;18.40;86.00;;;;;;4955391;28;20557;-67
2022/10/31 10:01:25;;;;;;;14.00;3.67;;;18.40;85.40;;;;;;4955246;28;20046;-69
2022/10/31 10:03:56;;;;;;;17.40;3.00;;;18.50;86.10;;;;;;4954184;28;20042;-64
2022/10/31 10:06:29;;;;;;;13.57;3.85;;;18.60;85.60;;;;;;4955188;28;20062;-70
2022/10/31 10:08:56;;;;;;;15.40;2.85;;;18.60;85.90;;;;;;4954679;28;20031;-69
2022/10/31 10:12:22;;;;;;;14.43;2.70;;;18.70;85.30;;;;;;4955024;28;20640;-68
2022/10/31 10:15:18;;;;;;;19.15;3.38;;;18.80;85.30;;;;;;4926450;28;20396;-68
2022/10/31 10:18:04;;;;;;;17.30;3.15;;;18.80;86.10;;;;;;4968806;28;20082;-68
2022/10/31 10:20:33;;;;;;;21.60;3.47;;;18.90;85.80;;;;;;4975167;28;20034;-70
2022/10/31 10:23:36;;;;;;;17.40;2.60;;;18.90;86.00;;;;;;4975059;28;20066;-67
2022/10/31 10:26:28;;;;;;;20.23;3.47;;;19.00;85.20;;;;;;4974645;28;20043;-70
2022/10/31 10:29:38;;;;;;;16.15;3.72;;;19.10;84.60;;;;;;4968725;28;20067;-69
2022/10/31 10:32:20;;;;;;;18.52;2.75;;;19.20;83.70;;;;;;4964238;28;20039;-65
2022/10/31 10:34:50;;;;;;;10.20;2.65;;;19.30;84.00;;;;;;4974633;28;20047;-70
2022/10/31 10:37:25;;;;;;;10.57;3.38;;;19.30;83.10;;;;;;4973225;28;20031;-68
2022/10/31 10:39:58;;;;;;;15.05;3.17;;;19.50;83.80;;;;;;4974225;28;20126;-70
2022/10/31 10:48:14;;;;;;;19.55;3.40;;;19.70;81.00;;;;;;4974237;28;20065;-69
2022/10/31 10:50:49;;;;;;;13.18;2.60;;;19.70;80.00;;;;;;4973438;28;20055;-70
2022/10/31 10:53:48;;;;;;;11.93;2.70;;;19.80;77.90;;;;;;4974490;28;20504;-67
2022/10/31 10:56:41;;;;;;;20.60;2.83;;;19.90;78.10;;;;;;4973785;28;20322;-66
2022/10/31 10:59:12;;;;;;;;;;;20.00;79.10;;;;;;4971801;28;20109;-69
2022/10/31 11:01:40;;;;;;;12.52;3.40;;;20.00;78.20;;;;;;4973875;28;19910;-70
2022/10/31 11:04:24;;;;;;;12.88;3.10;;;20.10;80.00;;;;;;4974150;28;20476;-69
2022/10/31 11:07:08;;;;;;;15.65;3.97;;;20.10;81.00;;;;;;4974410;28;20031;-69
2022/10/31 11:09:34;;;;;;;15.35;3.08;;;;;;;;;;4974539;28;20031;-70
2022/10/31 11:12:22;;;;;;;30.35;3.47;;;20.30;79.30;;;;;;4974513;28;20085;-68
2022/10/31 11:14:52;;;;;;;20.77;3.20;;;20.40;79.70;;;;;;4974473;28;20049;-68
2022/10/31 11:17:30;;;;;;;24.30;3.65;;;;;;;;;;4974359;28;20117;-68
2022/10/31 11:20:06;;;;;;;11.35;3.47;;;20.60;82.60;;;;;;4974396;28;20054;-70
2022/10/31 11:22:31;;;;;;;11.55;2.80;;;20.60;78.70;;;;;;4974579;28;20141;-70
2022/10/31 11:24:57;;;;;;;14.73;2.80;;;20.80;87.10;;;;;;4974449;28;20038;-69
2022/10/31 11:27:25;;;;;;;20.27;3.55;;;20.80;75.70;;;;;;4974280;28;20038;-68
2022/10/31 11:29:51;;;;;;;18.52;3.05;;;20.90;75.60;;;;;;4974559;28;20503;-68
2022/10/31 11:32:25;;;;;;;12.35;2.13;;;20.90;75.60;;;;;;4974466;28;20038;-68
2022/10/31 11:34:55;;;;;;;15.20;2.55;;;21.00;93.50;;;;;;4974260;28;20043;-69
2022/10/31 11:37:24;;;;;;;18.17;2.72;;;21.00;74.80;;;;;;4974278;28;20082;-68
2022/10/31 11:39:53;;;;;;;10.35;3.05;;;21.10;75.00;;;;;;4974174;28;20109;-69
2022/10/31 11:42:23;;;;;;;11.55;2.55;;;21.10;75.60;;;;;;4972908;28;20035;-70
2022/10/31 11:44:50;;;;;;;13.77;3.30;;;21.20;75.30;;;;;;4974418;28;20499;-69
2022/10/31 11:47:20;;;;;;;13.48;3.20;;;21.20;72.10;;;;;;4973880;28;20046;-70
2022/10/31 11:49:49;;;;;;;19.95;2.95;;;21.20;72.70;;;;;;4973994;28;20385;-69
2022/10/31 11:52:27;;;;;;;19.20;3.05;;;21.30;72.00;;;;;;4973840;28;20041;-67
2022/10/31 11:54:55;;;;;;;15.68;3.22;;;21.30;73.20;;;;;;4973883;28;20086;-71
2022/10/31 11:57:42;;;;;;;13.15;2.65;;;21.50;74.30;;;;;;4974031;28;20042;-70
2022/10/31 12:00:37;;;;;;;12.82;3.05;;;21.50;72.70;;;;;;4971533;28;20113;-64
2022/10/31 12:03:23;;;;;;;12.40;2.70;;;21.50;71.00;;;;;;4972934;28;20051;-66
2022/10/31 12:06:17;;;;;;;15.45;3.40;;;21.50;70.90;;;;;;4976074;28;20484;-65
2022/10/31 12:08:43;;;;;;;15.90;3.40;;;21.60;71.80;;;;;;4977482;28;20037;-71
2022/10/31 12:11:39;;;;;;;11.07;2.80;;;21.70;72.80;;;;;;4977538;28;20051;-64
2022/10/31 12:14:31;;;;;;;23.63;4.05;;;21.70;72.00;;;;;;4977392;28;20476;-64
2022/10/31 12:17:17;;;;;;;11.40;2.65;;;21.80;72.00;;;;;;4977774;28;20085;-67
2022/10/31 12:20:18;;;;;;;13.90;3.28;;;21.80;73.10;;;;;;4977611;28;20027;-65
2022/10/31 12:23:22;;;;;;;12.40;3.35;;;21.90;72.40;;;;;;4961490;28;20039;-64
2022/10/31 12:26:13;;;;;;;19.00;3.33;;;21.90;73.20;;;;;;4969129;28;20145;-64
2022/10/31 12:28:57;;;;;;;21.00;4.30;;;22.00;73.00;;;;;;4977016;28;20166;-65
2022/10/31 12:31:29;;;;;;;15.18;3.95;;;22.00;73.10;;;;;;4977297;28;20473;-69
2022/10/31 12:34:03;;;;;;;11.53;3.00;;;22.00;73.50;;;;;;4977714;28;20042;-64
2022/10/31 12:36:35;;;;;;;17.73;3.47;;;22.00;74.30;;;;;;4977068;28;20043;-64
2022/10/31 12:39:12;;;;;;;9.60;2.83;;;22.00;72.90;;;;;;4977220;28;20039;-63
2022/10/31 12:42:15;;;;;;;18.25;3.70;;;22.00;72.30;;;;;;4977148;28;20058;-64
2022/10/31 12:44:44;;;;;;;18.90;3.33;;;22.00;72.50;;;;;;4976545;28;20031;-64
2022/10/31 12:48:07;;;;;;;15.30;3.60;;;22.00;72.90;;;;;;4976921;28;20035;-64
2022/10/31 12:50:44;;;;;;;17.35;3.88;;;22.10;74.10;;;;;;4955193;29;20154;-71
2022/10/31 12:53:28;;;;;;;17.40;3.70;;;22.10;72.90;;;;;;4955205;29;20166;-64
2022/10/31 12:56:11;;;;;;;12.50;3.25;;;22.10;71.30;;;;;;4969673;28;20518;-67
2022/10/31 12:58:52;;;;;;;13.85;2.85;;;;;;;;;;4976818;28;20098;-65
2022/10/31 13:01:29;;;;;;;15.55;3.60;;;22.20;73.10;;;;;;4976936;28;20042;-65
2022/10/31 13:04:35;;;;;;;14.40;3.28;;;22.20;72.30;;;;;;4976671;28;20507;-64
2022/10/31 13:07:09;;;;;;;15.77;3.47;;;22.30;74.20;;;;;;4956940;28;20106;-70
2022/10/31 13:09:45;;;;;;;16.98;4.40;;;22.20;71.80;;;;;;4967980;28;20046;-64